sensor_id;sensor_type;location;lat;lon;timestamp;P1;durP1;ratioP1;P2;durP2;ratioP2
52972;SDS011;38837;48.916;2.336;2024-03-08T00:02:00;10.35;;;7.97;;
52972;SDS011;38837;48.916;2.336;2024-03-08T00:04:02;10.32;;;8.15;;
52972;SDS011;38837;48.916;2.336;2024-03-08T00:06:04;11.63;;;8.18;;
52972;SDS011;38837;48.916;2.336;2024-03-08T00:08:07;9.35;;;7.97;;
52972;SDS011;38837;48.916;2.336;2024-03-08T00:10:12;10.60;;;8.50;;
52972;SDS011;38837;48.916;2.336;2024-03-08T00:12:16;10.45;;;8.20;;
52972;SDS011;38837;48.916;2.336;2024-03-08T00:14:18;9.93;;;7.60;;
52972;SDS011;38837;48.916;2.336;2024-03-08T00:16:20;11.50;;;8.35;;
52972;SDS011;38837;48.916;2.336;2024-03-08T00:18:22;11.40;;;8.30;;
52972;SDS011;38837;48.916;2.336;2024-03-08T00:20:24;11.73;;;8.07;;
52972;SDS011;38837;48.916;2.336;2024-03-08T00:22:26;11.15;;;8.70;;
52972;SDS011;38837;48.916;2.336;2024-03-08T00:24:28;11.07;;;8.43;;
52972;SDS011;38837;48.916;2.336;2024-03-08T00:26:30;12.93;;;8.02;;
52972;SDS011;38837;48.916;2.336;2024-03-08T00:28:32;11.27;;;8.50;;
52972;SDS011;38837;48.916;2.336;2024-03-08T00:30:35;11.10;;;7.68;;
52972;SDS011;38837;48.916;2.336;2024-03-08T00:32:37;11.60;;;8.30;;
52972;SDS011;38837;48.916;2.336;2024-03-08T00:34:39;11.70;;;8.27;;
52972;SDS011;38837;48.916;2.336;2024-03-08T00:36:41;12.73;;;8.60;;
52972;SDS011;38837;48.916;2.336;2024-03-08T00:38:43;11.18;;;8.23;;
52972;SDS011;38837;48.916;2.336;2024-03-08T00:40:45;9.88;;;7.65;;
52972;SDS011;38837;48.916;2.336;2024-03-08T00:42:47;11.55;;;8.63;;
52972;SDS011;38837;48.916;2.336;2024-03-08T00:44:49;10.40;;;8.30;;
52972;SDS011;38837;48.916;2.336;2024-03-08T00:46:52;9.98;;;7.97;;
52972;SDS011;38837;48.916;2.336;2024-03-08T00:48:56;11.02;;;8.60;;
52972;SDS011;38837;48.916;2.336;2024-03-08T00:50:58;11.25;;;8.13;;
52972;SDS011;38837;48.916;2.336;2024-03-08T00:53:00;11.15;;;8.60;;
52972;SDS011;38837;48.916;2.336;2024-03-08T00:55:01;10.40;;;8.02;;
52972;SDS011;38837;48.916;2.336;2024-03-08T00:57:04;10.82;;;8.63;;
52972;SDS011;38837;48.916;2.336;2024-03-08T01:01:10;12.35;;;9.27;;
52972;SDS011;38837;48.916;2.336;2024-03-08T01:03:11;12.00;;;8.95;;
52972;SDS011;38837;48.916;2.336;2024-03-08T01:05:14;13.68;;;8.65;;
52972;SDS011;38837;48.916;2.336;2024-03-08T01:07:15;10.13;;;8.23;;
52972;SDS011;38837;48.916;2.336;2024-03-08T01:09:17;9.75;;;8.00;;
52972;SDS011;38837;48.916;2.336;2024-03-08T01:11:19;10.73;;;8.38;;
52972;SDS011;38837;48.916;2.336;2024-03-08T01:13:21;11.23;;;8.93;;
52972;SDS011;38837;48.916;2.336;2024-03-08T01:15:23;13.27;;;9.00;;
52972;SDS011;38837;48.916;2.336;2024-03-08T01:17:25;11.25;;;8.90;;
52972;SDS011;38837;48.916;2.336;2024-03-08T01:19:28;13.50;;;9.10;;
52972;SDS011;38837;48.916;2.336;2024-03-08T01:21:29;11.85;;;8.63;;
52972;SDS011;38837;48.916;2.336;2024-03-08T01:23:31;12.35;;;9.77;;
52972;SDS011;38837;48.916;2.336;2024-03-08T01:25:33;13.10;;;8.32;;
52972;SDS011;38837;48.916;2.336;2024-03-08T01:27:35;12.15;;;8.77;;
52972;SDS011;38837;48.916;2.336;2024-03-08T01:29:38;12.98;;;8.77;;
52972;SDS011;38837;48.916;2.336;2024-03-08T01:31:40;12.65;;;9.05;;
52972;SDS011;38837;48.916;2.336;2024-03-08T01:33:41;12.07;;;9.18;;
52972;SDS011;38837;48.916;2.336;2024-03-08T01:35:44;11.90;;;8.25;;
52972;SDS011;38837;48.916;2.336;2024-03-08T01:37:46;11.65;;;8.52;;
52972;SDS011;38837;48.916;2.336;2024-03-08T01:39:47;12.18;;;8.98;;
52972;SDS011;38837;48.916;2.336;2024-03-08T01:41:49;11.55;;;8.77;;
52972;SDS011;38837;48.916;2.336;2024-03-08T01:43:51;12.07;;;9.25;;
52972;SDS011;38837;48.916;2.336;2024-03-08T01:45:54;12.85;;;8.43;;
52972;SDS011;38837;48.916;2.336;2024-03-08T01:47:58;11.25;;;8.80;;
52972;SDS011;38837;48.916;2.336;2024-03-08T01:50:01;12.07;;;9.10;;
52972;SDS011;38837;48.916;2.336;2024-03-08T01:52:04;11.50;;;8.80;;
52972;SDS011;38837;48.916;2.336;2024-03-08T01:54:06;11.15;;;8.73;;
52972;SDS011;38837;48.916;2.336;2024-03-08T01:56:11;13.90;;;9.25;;
52972;SDS011;38837;48.916;2.336;2024-03-08T01:58:15;12.55;;;9.40;;
52972;SDS011;38837;48.916;2.336;2024-03-08T02:00:17;14.55;;;9.65;;
52972;SDS011;38837;48.916;2.336;2024-03-08T02:02:21;14.70;;;9.82;;
52972;SDS011;38837;48.916;2.336;2024-03-08T02:04:23;13.93;;;9.80;;
52972;SDS011;38837;48.916;2.336;2024-03-08T02:06:25;13.60;;;8.98;;
52972;SDS011;38837;48.916;2.336;2024-03-08T02:08:27;13.15;;;9.27;;
52972;SDS011;38837;48.916;2.336;2024-03-08T02:10:29;12.48;;;9.52;;
52972;SDS011;38837;48.916;2.336;2024-03-08T02:12:31;14.07;;;9.30;;
52972;SDS011;38837;48.916;2.336;2024-03-08T02:14:33;13.55;;;8.77;;
52972;SDS011;38837;48.916;2.336;2024-03-08T02:16:35;12.02;;;8.63;;
52972;SDS011;38837;48.916;2.336;2024-03-08T02:18:37;14.60;;;10.15;;
52972;SDS011;38837;48.916;2.336;2024-03-08T02:20:41;12.43;;;9.48;;
52972;SDS011;38837;48.916;2.336;2024-03-08T02:22:44;13.88;;;9.70;;
52972;SDS011;38837;48.916;2.336;2024-03-08T02:24:46;11.80;;;8.88;;
52972;SDS011;38837;48.916;2.336;2024-03-08T02:26:48;13.75;;;10.07;;
52972;SDS011;38837;48.916;2.336;2024-03-08T02:28:50;14.07;;;9.45;;
52972;SDS011;38837;48.916;2.336;2024-03-08T02:30:52;13.30;;;9.00;;
52972;SDS011;38837;48.916;2.336;2024-03-08T02:32:59;13.38;;;10.05;;
52972;SDS011;38837;48.916;2.336;2024-03-08T02:35:01;12.50;;;9.32;;
52972;SDS011;38837;48.916;2.336;2024-03-08T02:37:03;15.23;;;9.35;;
52972;SDS011;38837;48.916;2.336;2024-03-08T02:39:05;15.27;;;10.32;;
52972;SDS011;38837;48.916;2.336;2024-03-08T02:41:07;13.30;;;10.27;;
52972;SDS011;38837;48.916;2.336;2024-03-08T02:43:10;12.82;;;9.93;;
52972;SDS011;38837;48.916;2.336;2024-03-08T02:45:12;12.70;;;9.65;;
52972;SDS011;38837;48.916;2.336;2024-03-08T02:47:15;11.50;;;9.60;;
52972;SDS011;38837;48.916;2.336;2024-03-08T02:49:16;17.00;;;10.20;;
52972;SDS011;38837;48.916;2.336;2024-03-08T02:51:18;13.85;;;9.98;;
52972;SDS011;38837;48.916;2.336;2024-03-08T02:53:21;12.18;;;9.60;;
52972;SDS011;38837;48.916;2.336;2024-03-08T02:55:24;13.55;;;10.00;;
52972;SDS011;38837;48.916;2.336;2024-03-08T02:57:27;12.95;;;9.82;;
52972;SDS011;38837;48.916;2.336;2024-03-08T02:59:29;13.10;;;9.88;;
52972;SDS011;38837;48.916;2.336;2024-03-08T03:01:31;16.70;;;9.80;;
52972;SDS011;38837;48.916;2.336;2024-03-08T03:03:33;13.15;;;10.10;;
52972;SDS011;38837;48.916;2.336;2024-03-08T03:05:35;13.00;;;9.60;;
52972;SDS011;38837;48.916;2.336;2024-03-08T03:07:37;13.48;;;9.95;;
52972;SDS011;38837;48.916;2.336;2024-03-08T03:09:39;13.68;;;10.40;;
52972;SDS011;38837;48.916;2.336;2024-03-08T03:11:44;19.45;;;10.52;;
52972;SDS011;38837;48.916;2.336;2024-03-08T03:13:46;13.80;;;8.80;;
52972;SDS011;38837;48.916;2.336;2024-03-08T03:15:50;15.98;;;10.90;;
52972;SDS011;38837;48.916;2.336;2024-03-08T03:17:52;12.60;;;9.65;;
52972;SDS011;38837;48.916;2.336;2024-03-08T03:19:55;14.63;;;10.15;;
52972;SDS011;38837;48.916;2.336;2024-03-08T03:21:57;18.35;;;10.75;;
52972;SDS011;38837;48.916;2.336;2024-03-08T03:23:58;16.35;;;9.70;;
52972;SDS011;38837;48.916;2.336;2024-03-08T03:26:00;14.50;;;9.82;;
52972;SDS011;38837;48.916;2.336;2024-03-08T03:28:03;13.68;;;10.02;;
52972;SDS011;38837;48.916;2.336;2024-03-08T03:30:06;13.90;;;10.35;;
52972;SDS011;38837;48.916;2.336;2024-03-08T03:32:23;12.85;;;9.65;;
52972;SDS011;38837;48.916;2.336;2024-03-08T03:34:25;15.88;;;10.50;;
52972;SDS011;38837;48.916;2.336;2024-03-08T03:36:28;15.65;;;9.88;;
52972;SDS011;38837;48.916;2.336;2024-03-08T03:38:30;13.80;;;9.90;;
52972;SDS011;38837;48.916;2.336;2024-03-08T03:40:33;14.05;;;9.73;;
52972;SDS011;38837;48.916;2.336;2024-03-08T03:42:35;15.52;;;10.30;;
52972;SDS011;38837;48.916;2.336;2024-03-08T03:44:39;12.82;;;9.68;;
52972;SDS011;38837;48.916;2.336;2024-03-08T03:46:41;13.32;;;9.70;;
52972;SDS011;38837;48.916;2.336;2024-03-08T03:48:45;15.35;;;9.98;;
52972;SDS011;38837;48.916;2.336;2024-03-08T03:50:48;15.85;;;10.55;;
52972;SDS011;38837;48.916;2.336;2024-03-08T03:52:51;15.32;;;10.38;;
52972;SDS011;38837;48.916;2.336;2024-03-08T03:54:53;12.32;;;9.70;;
52972;SDS011;38837;48.916;2.336;2024-03-08T03:56:55;14.52;;;10.00;;
52972;SDS011;38837;48.916;2.336;2024-03-08T03:58:57;15.77;;;10.63;;
52972;SDS011;38837;48.916;2.336;2024-03-08T04:00:59;14.73;;;10.65;;
52972;SDS011;38837;48.916;2.336;2024-03-08T04:03:01;14.20;;;10.70;;
52972;SDS011;38837;48.916;2.336;2024-03-08T04:05:03;13.40;;;9.98;;
52972;SDS011;38837;48.916;2.336;2024-03-08T04:07:06;12.63;;;9.60;;
52972;SDS011;38837;48.916;2.336;2024-03-08T04:09:08;12.98;;;9.80;;
52972;SDS011;38837;48.916;2.336;2024-03-08T04:11:11;14.93;;;9.15;;
52972;SDS011;38837;48.916;2.336;2024-03-08T04:13:13;11.88;;;9.25;;
52972;SDS011;38837;48.916;2.336;2024-03-08T04:15:16;13.05;;;9.40;;
52972;SDS011;38837;48.916;2.336;2024-03-08T04:17:18;13.13;;;9.68;;
52972;SDS011;38837;48.916;2.336;2024-03-08T04:19:20;12.43;;;8.93;;
52972;SDS011;38837;48.916;2.336;2024-03-08T04:21:22;13.43;;;9.80;;
52972;SDS011;38837;48.916;2.336;2024-03-08T04:23:24;14.68;;;9.30;;
52972;SDS011;38837;48.916;2.336;2024-03-08T04:25:26;14.80;;;9.45;;
52972;SDS011;38837;48.916;2.336;2024-03-08T04:27:28;13.00;;;9.40;;
52972;SDS011;38837;48.916;2.336;2024-03-08T04:29:30;12.85;;;10.05;;
52972;SDS011;38837;48.916;2.336;2024-03-08T04:31:33;13.73;;;10.17;;
52972;SDS011;38837;48.916;2.336;2024-03-08T04:33:35;15.52;;;10.15;;
52972;SDS011;38837;48.916;2.336;2024-03-08T04:35:37;15.45;;;10.10;;
52972;SDS011;38837;48.916;2.336;2024-03-08T04:37:39;16.65;;;10.25;;
52972;SDS011;38837;48.916;2.336;2024-03-08T04:39:41;13.68;;;10.43;;
52972;SDS011;38837;48.916;2.336;2024-03-08T04:41:43;16.15;;;10.63;;
52972;SDS011;38837;48.916;2.336;2024-03-08T04:43:45;12.15;;;9.65;;
52972;SDS011;38837;48.916;2.336;2024-03-08T04:45:48;13.35;;;9.32;;
52972;SDS011;38837;48.916;2.336;2024-03-08T04:47:49;13.38;;;10.15;;
52972;SDS011;38837;48.916;2.336;2024-03-08T04:49:54;15.02;;;10.60;;
52972;SDS011;38837;48.916;2.336;2024-03-08T04:51:57;13.82;;;10.40;;
52972;SDS011;38837;48.916;2.336;2024-03-08T04:53:59;16.45;;;10.98;;
52972;SDS011;38837;48.916;2.336;2024-03-08T04:56:01;14.77;;;10.55;;
52972;SDS011;38837;48.916;2.336;2024-03-08T04:58:07;15.50;;;10.40;;
52972;SDS011;38837;48.916;2.336;2024-03-08T05:00:09;14.63;;;10.52;;
52972;SDS011;38837;48.916;2.336;2024-03-08T05:02:13;16.50;;;10.60;;
52972;SDS011;38837;48.916;2.336;2024-03-08T05:04:15;13.82;;;10.55;;
52972;SDS011;38837;48.916;2.336;2024-03-08T05:06:16;14.55;;;10.40;;
52972;SDS011;38837;48.916;2.336;2024-03-08T05:08:18;12.57;;;9.50;;
52972;SDS011;38837;48.916;2.336;2024-03-08T05:10:20;14.32;;;10.48;;
52972;SDS011;38837;48.916;2.336;2024-03-08T05:12:23;16.15;;;10.52;;
52972;SDS011;38837;48.916;2.336;2024-03-08T05:14:25;18.48;;;10.60;;
52972;SDS011;38837;48.916;2.336;2024-03-08T05:16:27;14.27;;;10.48;;
52972;SDS011;38837;48.916;2.336;2024-03-08T05:18:28;15.00;;;10.77;;
52972;SDS011;38837;48.916;2.336;2024-03-08T05:20:33;15.55;;;11.05;;
52972;SDS011;38837;48.916;2.336;2024-03-08T05:22:36;18.20;;;10.85;;
52972;SDS011;38837;48.916;2.336;2024-03-08T05:24:38;15.18;;;10.23;;
52972;SDS011;38837;48.916;2.336;2024-03-08T05:26:40;13.18;;;9.85;;
52972;SDS011;38837;48.916;2.336;2024-03-08T05:28:43;14.60;;;10.48;;
52972;SDS011;38837;48.916;2.336;2024-03-08T05:30:45;15.52;;;10.45;;
52972;SDS011;38837;48.916;2.336;2024-03-08T05:32:47;16.60;;;11.15;;
52972;SDS011;38837;48.916;2.336;2024-03-08T05:34:49;17.05;;;11.13;;
52972;SDS011;38837;48.916;2.336;2024-03-08T05:36:51;18.35;;;11.18;;
52972;SDS011;38837;48.916;2.336;2024-03-08T05:38:52;15.48;;;11.38;;
52972;SDS011;38837;48.916;2.336;2024-03-08T05:40:55;15.48;;;10.52;;
52972;SDS011;38837;48.916;2.336;2024-03-08T05:42:58;14.30;;;10.18;;
52972;SDS011;38837;48.916;2.336;2024-03-08T05:45:00;15.82;;;10.55;;
52972;SDS011;38837;48.916;2.336;2024-03-08T05:47:02;15.38;;;10.27;;
52972;SDS011;38837;48.916;2.336;2024-03-08T05:49:05;15.48;;;10.85;;
52972;SDS011;38837;48.916;2.336;2024-03-08T05:51:08;15.07;;;10.32;;
52972;SDS011;38837;48.916;2.336;2024-03-08T05:53:09;16.38;;;10.18;;
52972;SDS011;38837;48.916;2.336;2024-03-08T05:55:11;13.05;;;10.00;;
52972;SDS011;38837;48.916;2.336;2024-03-08T05:57:15;16.55;;;10.75;;
52972;SDS011;38837;48.916;2.336;2024-03-08T05:59:18;13.85;;;10.30;;
52972;SDS011;38837;48.916;2.336;2024-03-08T06:01:20;13.68;;;9.63;;
52972;SDS011;38837;48.916;2.336;2024-03-08T06:03:23;15.05;;;10.63;;
52972;SDS011;38837;48.916;2.336;2024-03-08T06:05:25;16.73;;;10.65;;
52972;SDS011;38837;48.916;2.336;2024-03-08T06:07:27;14.63;;;10.15;;
52972;SDS011;38837;48.916;2.336;2024-03-08T06:09:29;14.15;;;10.02;;
52972;SDS011;38837;48.916;2.336;2024-03-08T06:11:31;18.17;;;10.48;;
52972;SDS011;38837;48.916;2.336;2024-03-08T06:13:33;16.52;;;10.60;;
52972;SDS011;38837;48.916;2.336;2024-03-08T06:15:35;16.80;;;10.70;;
52972;SDS011;38837;48.916;2.336;2024-03-08T06:17:37;16.38;;;10.00;;
52972;SDS011;38837;48.916;2.336;2024-03-08T06:19:39;14.15;;;10.35;;
52972;SDS011;38837;48.916;2.336;2024-03-08T06:21:41;17.15;;;10.68;;
52972;SDS011;38837;48.916;2.336;2024-03-08T06:23:43;14.52;;;10.57;;
52972;SDS011;38837;48.916;2.336;2024-03-08T06:25:45;18.20;;;11.77;;
52972;SDS011;38837;48.916;2.336;2024-03-08T06:27:47;16.15;;;11.18;;
52972;SDS011;38837;48.916;2.336;2024-03-08T06:29:49;14.32;;;10.27;;
52972;SDS011;38837;48.916;2.336;2024-03-08T06:31:51;17.38;;;11.38;;
52972;SDS011;38837;48.916;2.336;2024-03-08T06:33:55;14.93;;;10.25;;
52972;SDS011;38837;48.916;2.336;2024-03-08T06:35:59;16.80;;;10.50;;
52972;SDS011;38837;48.916;2.336;2024-03-08T06:38:01;17.13;;;10.73;;
52972;SDS011;38837;48.916;2.336;2024-03-08T06:40:03;16.60;;;11.40;;
52972;SDS011;38837;48.916;2.336;2024-03-08T06:42:05;15.02;;;10.45;;
52972;SDS011;38837;48.916;2.336;2024-03-08T06:44:08;17.17;;;11.05;;
52972;SDS011;38837;48.916;2.336;2024-03-08T06:46:10;17.60;;;10.82;;
52972;SDS011;38837;48.916;2.336;2024-03-08T06:48:19;19.63;;;11.68;;
52972;SDS011;38837;48.916;2.336;2024-03-08T06:50:21;18.30;;;10.30;;
52972;SDS011;38837;48.916;2.336;2024-03-08T06:52:23;16.60;;;11.32;;
52972;SDS011;38837;48.916;2.336;2024-03-08T06:54:25;20.20;;;11.00;;
52972;SDS011;38837;48.916;2.336;2024-03-08T06:56:28;16.88;;;11.45;;
52972;SDS011;38837;48.916;2.336;2024-03-08T06:58:31;21.63;;;12.33;;
52972;SDS011;38837;48.916;2.336;2024-03-08T07:00:34;24.42;;;11.05;;
52972;SDS011;38837;48.916;2.336;2024-03-08T07:02:37;17.98;;;11.68;;
52972;SDS011;38837;48.916;2.336;2024-03-08T07:06:43;16.60;;;10.27;;
52972;SDS011;38837;48.916;2.336;2024-03-08T07:08:45;14.93;;;10.82;;
52972;SDS011;38837;48.916;2.336;2024-03-08T07:10:47;20.98;;;11.15;;
52972;SDS011;38837;48.916;2.336;2024-03-08T07:12:50;21.67;;;11.00;;
52972;SDS011;38837;48.916;2.336;2024-03-08T07:14:52;17.60;;;10.88;;
52972;SDS011;38837;48.916;2.336;2024-03-08T07:16:55;18.20;;;11.18;;
52972;SDS011;38837;48.916;2.336;2024-03-08T07:18:56;16.73;;;11.30;;
52972;SDS011;38837;48.916;2.336;2024-03-08T07:21:00;18.48;;;11.13;;
52972;SDS011;38837;48.916;2.336;2024-03-08T07:23:03;17.27;;;11.40;;
52972;SDS011;38837;48.916;2.336;2024-03-08T07:25:05;18.00;;;10.80;;
52972;SDS011;38837;48.916;2.336;2024-03-08T07:27:26;18.90;;;11.63;;
52972;SDS011;38837;48.916;2.336;2024-03-08T07:29:28;19.58;;;11.07;;
52972;SDS011;38837;48.916;2.336;2024-03-08T07:31:30;15.18;;;11.15;;
52972;SDS011;38837;48.916;2.336;2024-03-08T07:33:53;16.70;;;10.63;;
52972;SDS011;38837;48.916;2.336;2024-03-08T07:35:55;19.98;;;11.43;;
52972;SDS011;38837;48.916;2.336;2024-03-08T07:37:57;17.67;;;10.77;;
52972;SDS011;38837;48.916;2.336;2024-03-08T07:40:01;15.20;;;9.95;;
52972;SDS011;38837;48.916;2.336;2024-03-08T07:42:03;19.10;;;12.20;;
52972;SDS011;38837;48.916;2.336;2024-03-08T07:44:06;18.92;;;11.05;;
52972;SDS011;38837;48.916;2.336;2024-03-08T07:46:12;17.10;;;10.47;;
52972;SDS011;38837;48.916;2.336;2024-03-08T07:48:14;15.10;;;10.45;;
52972;SDS011;38837;48.916;2.336;2024-03-08T07:50:18;15.07;;;10.93;;
52972;SDS011;38837;48.916;2.336;2024-03-08T07:52:20;14.02;;;10.63;;
52972;SDS011;38837;48.916;2.336;2024-03-08T07:54:22;15.90;;;11.15;;
52972;SDS011;38837;48.916;2.336;2024-03-08T07:56:24;19.45;;;11.52;;
52972;SDS011;38837;48.916;2.336;2024-03-08T07:58:29;17.27;;;10.82;;
52972;SDS011;38837;48.916;2.336;2024-03-08T08:00:33;16.67;;;10.10;;
52972;SDS011;38837;48.916;2.336;2024-03-08T08:02:37;19.15;;;11.82;;
52972;SDS011;38837;48.916;2.336;2024-03-08T08:04:41;16.23;;;11.32;;
52972;SDS011;38837;48.916;2.336;2024-03-08T08:06:43;17.23;;;11.63;;
52972;SDS011;38837;48.916;2.336;2024-03-08T08:08:45;17.65;;;10.90;;
52972;SDS011;38837;48.916;2.336;2024-03-08T08:10:46;18.77;;;11.02;;
52972;SDS011;38837;48.916;2.336;2024-03-08T08:12:49;16.15;;;11.35;;
52972;SDS011;38837;48.916;2.336;2024-03-08T08:14:51;19.88;;;11.48;;
52972;SDS011;38837;48.916;2.336;2024-03-08T08:16:53;17.33;;;11.77;;
52972;SDS011;38837;48.916;2.336;2024-03-08T08:18:57;19.08;;;11.00;;
52972;SDS011;38837;48.916;2.336;2024-03-08T08:20:59;15.27;;;11.18;;
52972;SDS011;38837;48.916;2.336;2024-03-08T08:23:03;16.48;;;11.07;;
52972;SDS011;38837;48.916;2.336;2024-03-08T08:25:06;16.83;;;10.93;;
52972;SDS011;38837;48.916;2.336;2024-03-08T08:27:09;14.73;;;10.15;;
52972;SDS011;38837;48.916;2.336;2024-03-08T08:31:15;18.83;;;11.32;;
52972;SDS011;38837;48.916;2.336;2024-03-08T08:33:17;16.20;;;11.13;;
52972;SDS011;38837;48.916;2.336;2024-03-08T08:35:19;16.60;;;11.23;;
52972;SDS011;38837;48.916;2.336;2024-03-08T08:37:21;17.23;;;10.60;;
52972;SDS011;38837;48.916;2.336;2024-03-08T08:39:26;17.48;;;10.65;;
52972;SDS011;38837;48.916;2.336;2024-03-08T08:41:29;14.68;;;9.88;;
52972;SDS011;38837;48.916;2.336;2024-03-08T08:43:31;18.45;;;10.45;;
52972;SDS011;38837;48.916;2.336;2024-03-08T08:45:35;14.95;;;10.60;;
52972;SDS011;38837;48.916;2.336;2024-03-08T08:47:37;19.02;;;10.32;;
52972;SDS011;38837;48.916;2.336;2024-03-08T08:49:39;15.13;;;9.98;;
52972;SDS011;38837;48.916;2.336;2024-03-08T08:51:41;19.63;;;10.27;;
52972;SDS011;38837;48.916;2.336;2024-03-08T08:53:49;14.93;;;9.95;;
52972;SDS011;38837;48.916;2.336;2024-03-08T08:55:51;15.82;;;9.57;;
52972;SDS011;38837;48.916;2.336;2024-03-08T08:57:54;15.27;;;10.00;;
52972;SDS011;38837;48.916;2.336;2024-03-08T08:59:57;14.70;;;10.52;;
52972;SDS011;38837;48.916;2.336;2024-03-08T09:01:59;14.57;;;9.73;;
52972;SDS011;38837;48.916;2.336;2024-03-08T09:04:01;14.27;;;9.05;;
52972;SDS011;38837;48.916;2.336;2024-03-08T09:06:03;14.32;;;9.70;;
52972;SDS011;38837;48.916;2.336;2024-03-08T09:08:06;16.63;;;11.02;;
52972;SDS011;38837;48.916;2.336;2024-03-08T09:10:10;17.13;;;11.07;;
52972;SDS011;38837;48.916;2.336;2024-03-08T09:12:16;12.73;;;9.23;;
52972;SDS011;38837;48.916;2.336;2024-03-08T09:14:19;15.68;;;9.95;;
52972;SDS011;38837;48.916;2.336;2024-03-08T09:16:21;12.98;;;9.45;;
52972;SDS011;38837;48.916;2.336;2024-03-08T09:18:24;13.18;;;9.30;;
52972;SDS011;38837;48.916;2.336;2024-03-08T09:20:26;12.75;;;9.38;;
52972;SDS011;38837;48.916;2.336;2024-03-08T09:22:28;14.68;;;10.30;;
52972;SDS011;38837;48.916;2.336;2024-03-08T09:24:31;17.55;;;9.63;;
52972;SDS011;38837;48.916;2.336;2024-03-08T09:26:35;13.40;;;8.65;;
52972;SDS011;38837;48.916;2.336;2024-03-08T09:28:42;15.38;;;9.20;;
52972;SDS011;38837;48.916;2.336;2024-03-08T09:30:47;13.60;;;9.15;;
52972;SDS011;38837;48.916;2.336;2024-03-08T09:33:00;15.52;;;9.27;;
52972;SDS011;38837;48.916;2.336;2024-03-08T09:35:03;14.55;;;9.55;;
52972;SDS011;38837;48.916;2.336;2024-03-08T09:37:08;15.18;;;9.30;;
52972;SDS011;38837;48.916;2.336;2024-03-08T09:39:10;11.30;;;8.50;;
52972;SDS011;38837;48.916;2.336;2024-03-08T09:41:18;15.40;;;9.02;;
52972;SDS011;38837;48.916;2.336;2024-03-08T09:43:20;15.65;;;8.00;;
52972;SDS011;38837;48.916;2.336;2024-03-08T09:45:23;11.88;;;8.93;;
52972;SDS011;38837;48.916;2.336;2024-03-08T09:47:27;14.82;;;8.38;;
52972;SDS011;38837;48.916;2.336;2024-03-08T09:49:35;14.05;;;8.80;;
52972;SDS011;38837;48.916;2.336;2024-03-08T09:51:39;12.32;;;8.35;;
52972;SDS011;38837;48.916;2.336;2024-03-08T09:53:42;12.00;;;8.90;;
52972;SDS011;38837;48.916;2.336;2024-03-08T09:55:44;14.45;;;8.05;;
52972;SDS011;38837;48.916;2.336;2024-03-08T09:57:46;16.20;;;8.70;;
52972;SDS011;38837;48.916;2.336;2024-03-08T10:00:10;13.35;;;8.68;;
52972;SDS011;38837;48.916;2.336;2024-03-08T10:02:25;14.20;;;9.10;;
52972;SDS011;38837;48.916;2.336;2024-03-08T10:04:30;11.63;;;7.60;;
52972;SDS011;38837;48.916;2.336;2024-03-08T10:06:34;12.13;;;8.10;;
52972;SDS011;38837;48.916;2.336;2024-03-08T10:08:36;13.02;;;8.07;;
52972;SDS011;38837;48.916;2.336;2024-03-08T10:10:38;11.63;;;7.72;;
52972;SDS011;38837;48.916;2.336;2024-03-08T10:12:40;10.98;;;7.10;;
52972;SDS011;38837;48.916;2.336;2024-03-08T10:14:42;11.80;;;7.82;;
52972;SDS011;38837;48.916;2.336;2024-03-08T10:16:44;11.85;;;7.18;;
52972;SDS011;38837;48.916;2.336;2024-03-08T10:18:48;14.25;;;7.70;;
52972;SDS011;38837;48.916;2.336;2024-03-08T10:21:02;11.95;;;7.78;;
52972;SDS011;38837;48.916;2.336;2024-03-08T10:23:10;11.27;;;7.50;;
52972;SDS011;38837;48.916;2.336;2024-03-08T10:25:12;11.50;;;7.57;;
52972;SDS011;38837;48.916;2.336;2024-03-08T10:27:16;10.23;;;6.63;;
52972;SDS011;38837;48.916;2.336;2024-03-08T10:29:19;11.30;;;7.03;;
52972;SDS011;38837;48.916;2.336;2024-03-08T10:31:21;12.70;;;7.10;;
52972;SDS011;38837;48.916;2.336;2024-03-08T10:33:23;10.13;;;6.82;;
52972;SDS011;38837;48.916;2.336;2024-03-08T10:35:25;11.20;;;6.68;;
52972;SDS011;38837;48.916;2.336;2024-03-08T10:37:28;11.98;;;7.43;;
52972;SDS011;38837;48.916;2.336;2024-03-08T10:39:36;8.73;;;6.60;;
52972;SDS011;38837;48.916;2.336;2024-03-08T10:41:39;9.45;;;6.72;;
52972;SDS011;38837;48.916;2.336;2024-03-08T10:48:20;8.65;;;6.20;;
52972;SDS011;38837;48.916;2.336;2024-03-08T10:50:37;14.25;;;6.20;;
52972;SDS011;38837;48.916;2.336;2024-03-08T10:52:40;9.13;;;5.88;;
52972;SDS011;38837;48.916;2.336;2024-03-08T10:54:42;9.52;;;6.03;;
52972;SDS011;38837;48.916;2.336;2024-03-08T10:58:50;9.80;;;5.75;;
52972;SDS011;38837;48.916;2.336;2024-03-08T11:00:55;10.30;;;6.20;;
52972;SDS011;38837;48.916;2.336;2024-03-08T11:02:58;8.52;;;4.97;;
52972;SDS011;38837;48.916;2.336;2024-03-08T11:05:01;9.07;;;5.20;;
52972;SDS011;38837;48.916;2.336;2024-03-08T11:07:05;11.10;;;5.47;;
52972;SDS011;38837;48.916;2.336;2024-03-08T11:09:11;8.45;;;4.97;;
52972;SDS011;38837;48.916;2.336;2024-03-08T11:11:32;11.95;;;5.75;;
52972;SDS011;38837;48.916;2.336;2024-03-08T11:13:39;9.10;;;4.90;;
52972;SDS011;38837;48.916;2.336;2024-03-08T11:15:42;8.20;;;5.05;;
52972;SDS011;38837;48.916;2.336;2024-03-08T11:17:45;10.02;;;5.15;;
52972;SDS011;38837;48.916;2.336;2024-03-08T11:19:48;9.45;;;4.68;;
52972;SDS011;38837;48.916;2.336;2024-03-08T11:21:57;10.07;;;4.93;;
52972;SDS011;38837;48.916;2.336;2024-03-08T11:24:00;8.40;;;4.95;;
52972;SDS011;38837;48.916;2.336;2024-03-08T11:26:02;6.85;;;5.32;;
52972;SDS011;38837;48.916;2.336;2024-03-08T11:28:16;12.05;;;4.78;;
52972;SDS011;38837;48.916;2.336;2024-03-08T11:30:22;7.23;;;4.70;;
52972;SDS011;38837;48.916;2.336;2024-03-08T11:32:27;8.73;;;4.60;;
52972;SDS011;38837;48.916;2.336;2024-03-08T11:34:33;10.93;;;5.18;;
52972;SDS011;38837;48.916;2.336;2024-03-08T11:36:35;8.45;;;5.22;;
52972;SDS011;38837;48.916;2.336;2024-03-08T11:38:43;5.55;;;3.85;;
52972;SDS011;38837;48.916;2.336;2024-03-08T11:40:46;18.10;;;5.22;;
52972;SDS011;38837;48.916;2.336;2024-03-08T11:42:51;5.13;;;4.03;;
52972;SDS011;38837;48.916;2.336;2024-03-08T11:44:53;5.78;;;3.80;;
52972;SDS011;38837;48.916;2.336;2024-03-08T11:46:55;12.00;;;4.45;;
52972;SDS011;38837;48.916;2.336;2024-03-08T11:48:57;8.10;;;4.10;;
52972;SDS011;38837;48.916;2.336;2024-03-08T11:51:00;8.70;;;4.57;;
52972;SDS011;38837;48.916;2.336;2024-03-08T11:53:03;10.38;;;4.22;;
52972;SDS011;38837;48.916;2.336;2024-03-08T11:55:06;6.10;;;3.78;;
52972;SDS011;38837;48.916;2.336;2024-03-08T11:57:09;7.07;;;4.13;;
52972;SDS011;38837;48.916;2.336;2024-03-08T11:59:16;6.90;;;4.07;;
52972;SDS011;38837;48.916;2.336;2024-03-08T12:01:18;10.85;;;3.50;;
52972;SDS011;38837;48.916;2.336;2024-03-08T12:03:21;9.30;;;4.45;;
52972;SDS011;38837;48.916;2.336;2024-03-08T12:05:23;10.27;;;4.20;;
52972;SDS011;38837;48.916;2.336;2024-03-08T12:07:26;8.65;;;3.85;;
52972;SDS011;38837;48.916;2.336;2024-03-08T12:09:37;12.15;;;4.13;;
52972;SDS011;38837;48.916;2.336;2024-03-08T12:11:44;11.52;;;4.00;;
52972;SDS011;38837;48.916;2.336;2024-03-08T12:13:54;12.45;;;3.85;;
52972;SDS011;38837;48.916;2.336;2024-03-08T12:15:58;9.07;;;4.15;;
52972;SDS011;38837;48.916;2.336;2024-03-08T12:18:05;11.38;;;3.40;;
52972;SDS011;38837;48.916;2.336;2024-03-08T12:20:12;15.00;;;4.47;;
52972;SDS011;38837;48.916;2.336;2024-03-08T12:22:26;10.20;;;3.80;;